sensor_id;sensor_type;location;lat;lon;timestamp;pressure;altitude;pressure_sealevel;temperature;humidity
63554;BME280;49699;48.072;7.800;2023-03-25T00:01:20;99048.94;;;9.98;71.80
63554;BME280;49699;48.072;7.800;2023-03-25T00:03:49;99041.69;;;10.03;71.43
63554;BME280;49699;48.072;7.800;2023-03-25T00:06:17;99032.09;;;10.03;71.04
63554;BME280;49699;48.072;7.800;2023-03-25T00:08:42;99030.34;;;10.04;70.58
63554;BME280;49699;48.072;7.800;2023-03-25T00:11:08;99024.94;;;10.07;70.42
63554;BME280;49699;48.072;7.800;2023-03-25T00:13:33;99010.19;;;10.07;70.40
63554;BME280;49699;48.072;7.800;2023-03-25T00:15:59;99013.72;;;10.06;70.01
63554;BME280;49699;48.072;7.800;2023-03-25T00:18:26;98998.09;;;10.06;70.47
63554;BME280;49699;48.072;7.800;2023-03-25T00:20:53;98999.69;;;10.09;70.20
63554;BME280;49699;48.072;7.800;2023-03-25T00:23:19;98990.97;;;10.10;69.70
63554;BME280;49699;48.072;7.800;2023-03-25T00:25:44;98991.59;;;10.14;69.13
63554;BME280;49699;48.072;7.800;2023-03-25T00:28:10;98989.75;;;10.16;69.27
63554;BME280;49699;48.072;7.800;2023-03-25T00:30:39;98989.75;;;10.16;69.33
63554;BME280;49699;48.072;7.800;2023-03-25T00:33:05;98999.22;;;10.17;69.37
63554;BME280;49699;48.072;7.800;2023-03-25T00:35:30;99001.72;;;10.18;69.45
63554;BME280;49699;48.072;7.800;2023-03-25T00:37:57;99026.75;;;10.21;68.93
63554;BME280;49699;48.072;7.800;2023-03-25T00:40:26;99030.16;;;10.21;69.26
63554;BME280;49699;48.072;7.800;2023-03-25T00:42:53;99028.38;;;10.22;69.88
63554;BME280;49699;48.072;7.800;2023-03-25T00:45:18;99043.72;;;10.12;70.63
63554;BME280;49699;48.072;7.800;2023-03-25T00:47:43;99038.44;;;9.99;72.38
63554;BME280;49699;48.072;7.800;2023-03-25T00:50:09;99049.84;;;9.68;74.92
63554;BME280;49699;48.072;7.800;2023-03-25T00:52:34;99057.22;;;9.32;76.27
63554;BME280;49699;48.072;7.800;2023-03-25T00:55:00;99001.72;;;9.04;77.67
63554;BME280;49699;48.072;7.800;2023-03-25T00:57:26;99029.47;;;8.88;78.36
63554;BME280;49699;48.072;7.800;2023-03-25T00:59:51;99032.78;;;8.76;79.09
63554;BME280;49699;48.072;7.800;2023-03-25T01:02:16;99040.97;;;8.68;79.41
63554;BME280;49699;48.072;7.800;2023-03-25T01:04:46;99030.28;;;8.59;79.94
63554;BME280;49699;48.072;7.800;2023-03-25T01:07:16;99026.44;;;8.50;80.27
63554;BME280;49699;48.072;7.800;2023-03-25T01:09:42;99022.63;;;8.42;80.32
63554;BME280;49699;48.072;7.800;2023-03-25T01:12:10;99020.34;;;8.35;80.69
63554;BME280;49699;48.072;7.800;2023-03-25T01:14:35;99017.91;;;8.32;80.79
63554;BME280;49699;48.072;7.800;2023-03-25T01:17:01;99015.47;;;8.29;80.69
63554;BME280;49699;48.072;7.800;2023-03-25T01:19:28;99025.22;;;8.24;81.03
63554;BME280;49699;48.072;7.800;2023-03-25T01:21:53;99025.34;;;8.23;81.01
63554;BME280;49699;48.072;7.800;2023-03-25T01:24:19;99028.84;;;8.22;81.09
63554;BME280;49699;48.072;7.800;2023-03-25T01:26:44;99026.25;;;8.22;81.15
63554;BME280;49699;48.072;7.800;2023-03-25T01:29:11;99028.84;;;8.22;80.98
63554;BME280;49699;48.072;7.800;2023-03-25T01:31:36;99013.22;;;8.23;81.09
63554;BME280;49699;48.072;7.800;2023-03-25T01:34:02;99013.03;;;8.26;81.23
63554;BME280;49699;48.072;7.800;2023-03-25T01:36:27;99000.66;;;8.31;81.07
63554;BME280;49699;48.072;7.800;2023-03-25T01:38:57;98999.44;;;8.39;80.69
63554;BME280;49699;48.072;7.800;2023-03-25T01:41:23;99000.66;;;8.47;79.78
63554;BME280;49699;48.072;7.800;2023-03-25T01:46:26;98996.69;;;8.72;78.34
63554;BME280;49699;48.072;7.800;2023-03-25T01:48:52;98990.88;;;8.82;77.24
63554;BME280;49699;48.072;7.800;2023-03-25T01:51:19;99034.41;;;8.93;76.40
63554;BME280;49699;48.072;7.800;2023-03-25T01:53:46;99046.84;;;9.02;75.77
63554;BME280;49699;48.072;7.800;2023-03-25T01:56:12;99049.19;;;9.07;75.87
63554;BME280;49699;48.072;7.800;2023-03-25T01:58:39;99063.25;;;9.02;76.23
63554;BME280;49699;48.072;7.800;2023-03-25T02:01:05;99060.91;;;8.98;76.71
63554;BME280;49699;48.072;7.800;2023-03-25T02:03:31;99050.16;;;8.90;77.56
63554;BME280;49699;48.072;7.800;2023-03-25T02:08:28;99030.44;;;8.72;78.01
63554;BME280;49699;48.072;7.800;2023-03-25T02:10:56;99029.00;;;8.66;78.11
63554;BME280;49699;48.072;7.800;2023-03-25T02:13:22;99020.75;;;8.59;78.30
63554;BME280;49699;48.072;7.800;2023-03-25T02:21:01;99023.41;;;8.42;79.12
63554;BME280;49699;48.072;7.800;2023-03-25T02:26:33;99021.28;;;8.34;79.81
63554;BME280;49699;48.072;7.800;2023-03-25T02:29:10;99041.25;;;8.32;79.74
63554;BME280;49699;48.072;7.800;2023-03-25T02:31:45;99062.00;;;8.32;80.10
63554;BME280;49699;48.072;7.800;2023-03-25T02:39:42;99059.41;;;8.32;79.74
63554;BME280;49699;48.072;7.800;2023-03-25T02:47:21;99087.09;;;8.32;78.84
63554;BME280;49699;48.072;7.800;2023-03-25T02:49:50;99082.94;;;8.28;78.13
63554;BME280;49699;48.072;7.800;2023-03-25T02:54:43;99070.56;;;8.17;76.42
63554;BME280;49699;48.072;7.800;2023-03-25T02:57:12;99068.38;;;8.10;76.10
63554;BME280;49699;48.072;7.800;2023-03-25T02:59:39;99074.06;;;8.00;76.12
63554;BME280;49699;48.072;7.800;2023-03-25T03:02:07;99077.81;;;7.95;75.88
63554;BME280;49699;48.072;7.800;2023-03-25T03:07:10;99085.47;;;7.81;75.46
63554;BME280;49699;48.072;7.800;2023-03-25T03:09:45;99083.19;;;7.75;75.50
63554;BME280;49699;48.072;7.800;2023-03-25T03:20:18;99085.72;;;7.59;74.95
63554;BME280;49699;48.072;7.800;2023-03-25T03:22:53;99091.97;;;7.55;74.97
63554;BME280;49699;48.072;7.800;2023-03-25T03:27:53;99082.69;;;7.51;75.03
63554;BME280;49699;48.072;7.800;2023-03-25T03:33:08;99081.25;;;7.45;74.99
63554;BME280;49699;48.072;7.800;2023-03-25T03:35:44;99090.00;;;7.43;74.92
63554;BME280;49699;48.072;7.800;2023-03-25T03:38:14;99098.84;;;7.39;74.72
63554;BME280;49699;48.072;7.800;2023-03-25T03:40:41;99093.81;;;7.36;75.04
63554;BME280;49699;48.072;7.800;2023-03-25T03:43:45;99111.19;;;7.34;74.74
63554;BME280;49699;48.072;7.800;2023-03-25T03:46:04;99100.84;;;7.34;74.92
63554;BME280;49699;48.072;7.800;2023-03-25T03:51:27;99099.22;;;7.31;74.80
63554;BME280;49699;48.072;7.800;2023-03-25T03:53:57;99096.56;;;7.32;74.69
63554;BME280;49699;48.072;7.800;2023-03-25T03:56:31;99094.81;;;7.33;74.76
63554;BME280;49699;48.072;7.800;2023-03-25T03:59:03;99089.53;;;7.35;74.80
63554;BME280;49699;48.072;7.800;2023-03-25T04:01:39;99096.56;;;7.32;74.80
63554;BME280;49699;48.072;7.800;2023-03-25T04:04:10;99087.91;;;7.34;74.72
63554;BME280;49699;48.072;7.800;2023-03-25T04:11:46;99083.44;;;7.36;74.41
63554;BME280;49699;48.072;7.800;2023-03-25T04:14:14;99075.69;;;7.36;74.33
63554;BME280;49699;48.072;7.800;2023-03-25T04:16:40;99099.09;;;7.34;74.38
63554;BME280;49699;48.072;7.800;2023-03-25T04:19:09;99103.44;;;7.34;74.58
63554;BME280;49699;48.072;7.800;2023-03-25T04:21:37;99098.41;;;7.30;74.25
63554;BME280;49699;48.072;7.800;2023-03-25T04:24:03;99102.66;;;7.31;74.20
63554;BME280;49699;48.072;7.800;2023-03-25T04:26:28;99106.00;;;7.34;73.92
63554;BME280;49699;48.072;7.800;2023-03-25T04:28:58;99108.59;;;7.34;73.89
63554;BME280;49699;48.072;7.800;2023-03-25T04:31:23;99108.59;;;7.34;73.83
63554;BME280;49699;48.072;7.800;2023-03-25T04:33:49;99084.34;;;7.35;73.67
63554;BME280;49699;48.072;7.800;2023-03-25T04:36:15;99105.06;;;7.35;73.34
63554;BME280;49699;48.072;7.800;2023-03-25T04:38:41;99112.75;;;7.36;73.72
63554;BME280;49699;48.072;7.800;2023-03-25T04:41:10;99117.09;;;7.36;73.61
63554;BME280;49699;48.072;7.800;2023-03-25T04:43:36;99111.94;;;7.36;73.73
63554;BME280;49699;48.072;7.800;2023-03-25T04:46:03;99113.59;;;7.37;73.58
63554;BME280;49699;48.072;7.800;2023-03-25T04:48:29;99118.78;;;7.37;73.91
63554;BME280;49699;48.072;7.800;2023-03-25T04:50:55;99123.13;;;7.36;74.66
63554;BME280;49699;48.072;7.800;2023-03-25T04:53:23;99123.28;;;7.33;75.18
63554;BME280;49699;48.072;7.800;2023-03-25T04:55:48;99122.59;;;7.29;75.93
63554;BME280;49699;48.072;7.800;2023-03-25T04:58:14;99131.50;;;7.24;76.34
63554;BME280;49699;48.072;7.800;2023-03-25T05:00:40;99124.84;;;7.18;76.83
63554;BME280;49699;48.072;7.800;2023-03-25T05:03:05;99125.19;;;7.12;77.55
63554;BME280;49699;48.072;7.800;2023-03-25T05:05:31;99126.31;;;7.07;77.84
63554;BME280;49699;48.072;7.800;2023-03-25T05:07:56;99120.44;;;7.03;77.94
63554;BME280;49699;48.072;7.800;2023-03-25T05:10:23;99105.88;;;7.01;78.14
63554;BME280;49699;48.072;7.800;2023-03-25T05:12:49;99117.97;;;7.00;78.15
63554;BME280;49699;48.072;7.800;2023-03-25T05:15:14;99112.91;;;6.99;78.05
63554;BME280;49699;48.072;7.800;2023-03-25T05:17:41;99124.06;;;6.99;78.25
63554;BME280;49699;48.072;7.800;2023-03-25T05:20:08;99123.25;;;6.99;78.59
63554;BME280;49699;48.072;7.800;2023-03-25T05:22:34;99118.09;;;6.99;78.65
63554;BME280;49699;48.072;7.800;2023-03-25T05:25:03;99135.19;;;7.01;78.68
63554;BME280;49699;48.072;7.800;2023-03-25T05:27:28;99132.59;;;7.01;78.96
63554;BME280;49699;48.072;7.800;2023-03-25T05:29:58;99151.63;;;7.00;78.98
63554;BME280;49699;48.072;7.800;2023-03-25T05:32:23;99148.88;;;7.03;79.13
63554;BME280;49699;48.072;7.800;2023-03-25T05:34:50;99147.13;;;7.04;79.13
63554;BME280;49699;48.072;7.800;2023-03-25T05:37:15;99136.03;;;7.02;79.29
63554;BME280;49699;48.072;7.800;2023-03-25T05:39:40;99144.63;;;7.02;79.64
63554;BME280;49699;48.072;7.800;2023-03-25T05:42:06;99144.69;;;7.01;79.73
63554;BME280;49699;48.072;7.800;2023-03-25T05:44:31;99141.28;;;7.00;80.02
63554;BME280;49699;48.072;7.800;2023-03-25T05:46:56;99132.78;;;6.98;80.21
63554;BME280;49699;48.072;7.800;2023-03-25T05:49:25;99138.69;;;7.00;80.36
63554;BME280;49699;48.072;7.800;2023-03-25T05:51:50;99120.56;;;7.00;80.76
63554;BME280;49699;48.072;7.800;2023-03-25T05:54:18;99134.34;;;7.01;81.04
63554;BME280;49699;48.072;7.800;2023-03-25T05:56:43;99133.44;;;7.02;81.34
63554;BME280;49699;48.072;7.800;2023-03-25T05:59:08;99133.44;;;7.02;81.46
63554;BME280;49699;48.072;7.800;2023-03-25T06:01:34;99130.78;;;7.03;81.77
63554;BME280;49699;48.072;7.800;2023-03-25T06:04:03;99130.78;;;7.03;81.81
63554;BME280;49699;48.072;7.800;2023-03-25T06:06:30;99123.78;;;7.05;81.61
63554;BME280;49699;48.072;7.800;2023-03-25T06:08:56;99118.53;;;7.07;81.59
63554;BME280;49699;48.072;7.800;2023-03-25T06:11:22;99120.06;;;7.11;81.74
63554;BME280;49699;48.072;7.800;2023-03-25T06:13:47;99119.03;;;7.15;81.52
63554;BME280;49699;48.072;7.800;2023-03-25T06:16:17;99110.94;;;7.21;81.47
63554;BME280;49699;48.072;7.800;2023-03-25T06:18:46;99121.06;;;7.25;81.02
63554;BME280;49699;48.072;7.800;2023-03-25T06:21:17;99124.28;;;7.30;80.82
63554;BME280;49699;48.072;7.800;2023-03-25T06:23:44;99115.34;;;7.36;80.78
63554;BME280;49699;48.072;7.800;2023-03-25T06:26:09;99110.78;;;7.41;80.47
63554;BME280;49699;48.072;7.800;2023-03-25T06:28:35;99110.41;;;7.49;80.13
63554;BME280;49699;48.072;7.800;2023-03-25T06:31:00;99110.84;;;7.57;79.52
63554;BME280;49699;48.072;7.800;2023-03-25T06:33:31;99113.00;;;7.66;79.25
63554;BME280;49699;48.072;7.800;2023-03-25T06:35:56;99101.38;;;7.73;78.53
63554;BME280;49699;48.072;7.800;2023-03-25T06:38:21;99099.34;;;7.80;78.38
63554;BME280;49699;48.072;7.800;2023-03-25T06:41:00;99098.84;;;7.89;78.21
63554;BME280;49699;48.072;7.800;2023-03-25T06:43:25;99106.38;;;7.93;77.77
63554;BME280;49699;48.072;7.800;2023-03-25T06:46:10;99094.78;;;8.00;77.55
63554;BME280;49699;48.072;7.800;2023-03-25T06:49:02;99095.41;;;8.06;77.08
63554;BME280;49699;48.072;7.800;2023-03-25T06:51:27;99110.59;;;8.12;76.67
63554;BME280;49699;48.072;7.800;2023-03-25T06:53:52;99101.59;;;8.19;76.39
63554;BME280;49699;48.072;7.800;2023-03-25T06:56:17;99090.81;;;8.26;76.01
63554;BME280;49699;48.072;7.800;2023-03-25T06:58:43;99083.63;;;8.31;75.66
63554;BME280;49699;48.072;7.800;2023-03-25T07:01:08;99081.59;;;8.38;75.32
63554;BME280;49699;48.072;7.800;2023-03-25T07:03:35;99090.75;;;8.44;74.51
63554;BME280;49699;48.072;7.800;2023-03-25T07:06:00;99081.16;;;8.46;74.05
63554;BME280;49699;48.072;7.800;2023-03-25T07:08:26;99072.28;;;8.50;74.00
63554;BME280;49699;48.072;7.800;2023-03-25T07:10:51;99079.91;;;8.53;73.94
63554;BME280;49699;48.072;7.800;2023-03-25T07:13:16;99074.63;;;8.54;72.97
63554;BME280;49699;48.072;7.800;2023-03-25T07:15:42;99082.34;;;8.56;72.70
63554;BME280;49699;48.072;7.800;2023-03-25T07:18:07;99088.91;;;8.61;72.52
63554;BME280;49699;48.072;7.800;2023-03-25T07:20:32;99085.31;;;8.64;72.13
63554;BME280;49699;48.072;7.800;2023-03-25T07:22:57;99074.88;;;8.65;72.04
63554;BME280;49699;48.072;7.800;2023-03-25T07:25:23;99093.69;;;8.69;71.91
63554;BME280;49699;48.072;7.800;2023-03-25T07:27:48;99091.03;;;8.70;71.56
63554;BME280;49699;48.072;7.800;2023-03-25T07:30:16;99090.03;;;8.73;71.40
63554;BME280;49699;48.072;7.800;2023-03-25T07:32:42;99096.06;;;8.74;71.52
63554;BME280;49699;48.072;7.800;2023-03-25T07:35:08;99096.06;;;8.74;72.13
63554;BME280;49699;48.072;7.800;2023-03-25T07:37:33;99103.00;;;8.73;72.00
63554;BME280;49699;48.072;7.800;2023-03-25T07:39:59;99101.56;;;8.67;72.22
63554;BME280;49699;48.072;7.800;2023-03-25T07:42:24;99095.63;;;8.65;72.92
63554;BME280;49699;48.072;7.800;2023-03-25T07:45:10;99100.13;;;8.62;73.43
63554;BME280;49699;48.072;7.800;2023-03-25T07:47:37;99108.00;;;8.60;73.92
63554;BME280;49699;48.072;7.800;2023-03-25T07:50:03;99103.91;;;8.56;74.31
63554;BME280;49699;48.072;7.800;2023-03-25T07:52:28;99108.28;;;8.56;74.38
63554;BME280;49699;48.072;7.800;2023-03-25T07:54:54;99109.09;;;8.56;74.42
63554;BME280;49699;48.072;7.800;2023-03-25T07:57:19;99108.75;;;8.62;74.66
63554;BME280;49699;48.072;7.800;2023-03-25T07:59:45;99098.13;;;8.67;75.09
63554;BME280;49699;48.072;7.800;2023-03-25T08:02:13;99110.03;;;8.71;75.44
63554;BME280;49699;48.072;7.800;2023-03-25T08:04:39;99106.75;;;8.67;75.72
63554;BME280;49699;48.072;7.800;2023-03-25T08:07:04;99113.69;;;8.67;75.95
63554;BME280;49699;48.072;7.800;2023-03-25T08:09:29;99114.63;;;8.66;76.32
63554;BME280;49699;48.072;7.800;2023-03-25T08:11:55;99118.88;;;8.67;76.25
63554;BME280;49699;48.072;7.800;2023-03-25T08:14:20;99108.44;;;8.68;76.11
63554;BME280;49699;48.072;7.800;2023-03-25T08:16:46;99104.00;;;8.70;76.18
63554;BME280;49699;48.072;7.800;2023-03-25T08:19:11;99113.13;;;8.78;75.98
63554;BME280;49699;48.072;7.800;2023-03-25T08:21:36;99111.84;;;8.85;75.80
63554;BME280;49699;48.072;7.800;2023-03-25T08:24:02;99106.06;;;8.95;75.50
63554;BME280;49699;48.072;7.800;2023-03-25T08:26:28;99110.88;;;9.17;74.29
63554;BME280;49699;48.072;7.800;2023-03-25T08:28:55;99111.75;;;9.32;73.41
63554;BME280;49699;48.072;7.800;2023-03-25T08:31:22;99119.69;;;9.45;72.36
63554;BME280;49699;48.072;7.800;2023-03-25T08:33:47;99127.75;;;9.54;72.12
63554;BME280;49699;48.072;7.800;2023-03-25T08:36:13;99126.09;;;9.53;71.54
63554;BME280;49699;48.072;7.800;2023-03-25T08:38:44;99110.59;;;9.52;70.82
63554;BME280;49699;48.072;7.800;2023-03-25T08:41:09;99117.84;;;9.47;70.86
63554;BME280;49699;48.072;7.800;2023-03-25T08:43:34;99128.22;;;9.47;71.02
63554;BME280;49699;48.072;7.800;2023-03-25T08:45:59;99116.81;;;9.49;70.89
63554;BME280;49699;48.072;7.800;2023-03-25T08:48:25;99113.09;;;9.53;70.76
63554;BME280;49699;48.072;7.800;2023-03-25T08:50:50;99105.31;;;9.53;70.48
63554;BME280;49699;48.072;7.800;2023-03-25T08:53:15;99122.41;;;9.57;71.07
63554;BME280;49699;48.072;7.800;2023-03-25T08:55:41;99128.91;;;9.64;70.48
63554;BME280;49699;48.072;7.800;2023-03-25T08:58:06;99113.41;;;9.63;70.39
63554;BME280;49699;48.072;7.800;2023-03-25T09:00:32;99122.41;;;9.57;70.44
63554;BME280;49699;48.072;7.800;2023-03-25T09:02:58;99120.22;;;9.50;71.04
63554;BME280;49699;48.072;7.800;2023-03-25T09:05:24;99118.84;;;9.44;71.11
63554;BME280;49699;48.072;7.800;2023-03-25T09:07:50;99105.47;;;9.36;71.28
63554;BME280;49699;48.072;7.800;2023-03-25T09:10:16;99112.78;;;9.29;71.39
63554;BME280;49699;48.072;7.800;2023-03-25T09:12:41;99111.38;;;9.24;71.75
63554;BME280;49699;48.072;7.800;2023-03-25T09:15:07;99113.22;;;9.22;71.44
63554;BME280;49699;48.072;7.800;2023-03-25T09:17:32;99118.47;;;9.20;71.80
63554;BME280;49699;48.072;7.800;2023-03-25T09:19:57;99116.72;;;9.21;71.05
63554;BME280;49699;48.072;7.800;2023-03-25T09:22:23;99132.97;;;9.24;71.40
63554;BME280;49699;48.072;7.800;2023-03-25T09:24:48;99131.72;;;9.31;70.57
63554;BME280;49699;48.072;7.800;2023-03-25T09:27:13;99125.94;;;9.26;71.01
63554;BME280;49699;48.072;7.800;2023-03-25T09:29:38;99121.84;;;9.22;71.29
63554;BME280;49699;48.072;7.800;2023-03-25T09:32:05;99117.47;;;9.23;71.07
63554;BME280;49699;48.072;7.800;2023-03-25T09:34:30;99123.25;;;9.28;71.03
63554;BME280;49699;48.072;7.800;2023-03-25T09:36:56;99133.28;;;9.34;70.89
63554;BME280;49699;48.072;7.800;2023-03-25T09:39:21;99138.13;;;9.40;70.56
63554;BME280;49699;48.072;7.800;2023-03-25T09:44:38;99129.50;;;9.39;70.19
63554;BME280;49699;48.072;7.800;2023-03-25T09:47:08;99133.59;;;9.44;69.81
63554;BME280;49699;48.072;7.800;2023-03-25T09:49:39;99143.38;;;9.68;69.20
63554;BME280;49699;48.072;7.800;2023-03-25T09:52:06;99135.06;;;10.06;68.40
63554;BME280;49699;48.072;7.800;2023-03-25T09:54:36;99153.78;;;10.55;66.56
63554;BME280;49699;48.072;7.800;2023-03-25T09:57:06;99155.84;;;11.18;64.99
63554;BME280;49699;48.072;7.800;2023-03-25T10:04:30;99156.41;;;12.64;60.54
63554;BME280;49699;48.072;7.800;2023-03-25T10:09:41;99160.41;;;12.81;59.10
63554;BME280;49699;48.072;7.800;2023-03-25T10:12:12;99145.88;;;12.53;59.89
63554;BME280;49699;48.072;7.800;2023-03-25T10:14:50;99159.38;;;12.22;60.41
63554;BME280;49699;48.072;7.800;2023-03-25T10:17:38;99172.72;;;12.30;60.57
63554;BME280;49699;48.072;7.800;2023-03-25T10:25:05;99164.59;;;11.96;60.71
63554;BME280;49699;48.072;7.800;2023-03-25T10:27:39;99160.09;;;11.86;60.96
63554;BME280;49699;48.072;7.800;2023-03-25T10:32:42;99172.38;;;11.83;61.18
63554;BME280;49699;48.072;7.800;2023-03-25T10:38:05;99174.28;;;11.94;60.98
63554;BME280;49699;48.072;7.800;2023-03-25T10:40:35;99167.31;;;12.07;60.49
63554;BME280;49699;48.072;7.800;2023-03-25T10:45:34;99156.13;;;12.43;59.17
63554;BME280;49699;48.072;7.800;2023-03-25T10:48:04;99155.38;;;12.41;59.39
63554;BME280;49699;48.072;7.800;2023-03-25T10:50:31;99148.72;;;12.25;60.00
63554;BME280;49699;48.072;7.800;2023-03-25T10:52:56;99162.19;;;12.18;61.21
63554;BME280;49699;48.072;7.800;2023-03-25T10:55:23;99156.34;;;12.28;61.52
63554;BME280;49699;48.072;7.800;2023-03-25T10:57:49;99154.31;;;12.69;60.82
63554;BME280;49699;48.072;7.800;2023-03-25T11:00:16;99156.94;;;12.93;59.99
63554;BME280;49699;48.072;7.800;2023-03-25T11:02:45;99126.59;;;13.03;59.75
63554;BME280;49699;48.072;7.800;2023-03-25T11:05:11;99141.03;;;12.96;60.16
63554;BME280;49699;48.072;7.800;2023-03-25T11:07:41;99142.06;;;13.06;60.17
63554;BME280;49699;48.072;7.800;2023-03-25T11:10:22;99138.94;;;13.49;58.74
63554;BME280;49699;48.072;7.800;2023-03-25T11:12:48;99133.00;;;13.93;56.58
63554;BME280;49699;48.072;7.800;2023-03-25T11:15:14;99138.78;;;13.85;56.36
63554;BME280;49699;48.072;7.800;2023-03-25T11:17:41;99135.28;;;13.63;56.76
63554;BME280;49699;48.072;7.800;2023-03-25T11:20:10;99134.75;;;13.46;57.01
63554;BME280;49699;48.072;7.800;2023-03-25T11:22:44;99124.38;;;13.69;56.52
63554;BME280;49699;48.072;7.800;2023-03-25T11:25:12;99143.19;;;13.74;56.22
63554;BME280;49699;48.072;7.800;2023-03-25T11:27:47;99139.97;;;13.46;56.12
63554;BME280;49699;48.072;7.800;2023-03-25T11:30:16;99121.00;;;13.08;56.54
63554;BME280;49699;48.072;7.800;2023-03-25T11:32:42;99138.69;;;12.80;57.05
63554;BME280;49699;48.072;7.800;2023-03-25T11:35:14;99152.00;;;12.65;57.53
63554;BME280;49699;48.072;7.800;2023-03-25T11:37:46;99145.03;;;12.52;58.03
63554;BME280;49699;48.072;7.800;2023-03-25T11:40:14;99136.03;;;12.57;58.13
63554;BME280;49699;48.072;7.800;2023-03-25T11:42:40;99129.88;;;12.94;56.72
63554;BME280;49699;48.072;7.800;2023-03-25T11:47:45;99128.75;;;13.22;54.09
63554;BME280;49699;48.072;7.800;2023-03-25T11:50:17;99136.81;;;13.19;53.86
63554;BME280;49699;48.072;7.800;2023-03-25T11:52:44;99144.53;;;13.08;53.24
63554;BME280;49699;48.072;7.800;2023-03-25T11:55:15;99148.97;;;12.95;53.47
63554;BME280;49699;48.072;7.800;2023-03-25T11:57:41;99142.13;;;12.81;53.45
63554;BME280;49699;48.072;7.800;2023-03-25T12:00:31;99145.41;;;12.72;53.58
63554;BME280;49699;48.072;7.800;2023-03-25T12:03:04;99148.13;;;12.70;53.84
63554;BME280;49699;48.072;7.800;2023-03-25T12:05:30;99141.31;;;12.80;53.63
63554;BME280;49699;48.072;7.800;2023-03-25T12:08:02;99149.31;;;12.90;53.76
63554;BME280;49699;48.072;7.800;2023-03-25T12:15:24;99125.84;;;12.77;54.55
63554;BME280;49699;48.072;7.800;2023-03-25T12:18:04;99139.28;;;12.60;54.77
63554;BME280;49699;48.072;7.800;2023-03-25T12:20:35;99149.00;;;12.45;55.47
63554;BME280;49699;48.072;7.800;2023-03-25T12:29:00;99120.06;;;13.09;53.63
63554;BME280;49699;48.072;7.800;2023-03-25T12:31:28;99111.50;;;13.19;53.49
63554;BME280;49699;48.072;7.800;2023-03-25T12:36:39;99087.56;;;14.05;51.34
63554;BME280;49699;48.072;7.800;2023-03-25T12:39:22;99098.16;;;14.26;50.64
63554;BME280;49699;48.072;7.800;2023-03-25T12:44:40;99110.88;;;14.08;50.72
63554;BME280;49699;48.072;7.800;2023-03-25T12:47:11;99104.22;;;13.93;51.21
63554;BME280;49699;48.072;7.800;2023-03-25T12:49:45;99117.75;;;13.76;51.34
63554;BME280;49699;48.072;7.800;2023-03-25T12:57:15;99116.75;;;13.31;51.91
63554;BME280;49699;48.072;7.800;2023-03-25T13:02:40;99092.97;;;12.99;52.58
63554;BME280;49699;48.072;7.800;2023-03-25T13:07:44;99103.28;;;12.76;53.15
63554;BME280;49699;48.072;7.800;2023-03-25T13:10:13;99095.50;;;12.64;53.67
63554;BME280;49699;48.072;7.800;2023-03-25T13:15:06;99117.16;;;12.40;54.86
63554;BME280;49699;48.072;7.800;2023-03-25T13:17:39;99100.47;;;12.43;55.08
63554;BME280;49699;48.072;7.800;2023-03-25T13:20:08;99106.53;;;12.80;54.64
63554;BME280;49699;48.072;7.800;2023-03-25T13:22:42;99104.91;;;13.38;53.59
63554;BME280;49699;48.072;7.800;2023-03-25T13:25:43;99105.50;;;13.99;52.35
63554;BME280;49699;48.072;7.800;2023-03-25T13:28:02;99100.31;;;14.43;50.35
63554;BME280;49699;48.072;7.800;2023-03-25T13:30:30;99107.66;;;14.61;49.83
63554;BME280;49699;48.072;7.800;2023-03-25T13:32:58;99119.78;;;14.84;50.05
63554;BME280;49699;48.072;7.800;2023-03-25T13:35:33;99100.78;;;15.03;48.44
63554;BME280;49699;48.072;7.800;2023-03-25T13:38:00;99100.66;;;15.04;47.56
63554;BME280;49699;48.072;7.800;2023-03-25T13:40:36;99103.97;;;15.06;47.38
63554;BME280;49699;48.072;7.800;2023-03-25T13:48:41;99104.84;;;14.96;48.38
63554;BME280;49699;48.072;7.800;2023-03-25T13:51:10;99116.09;;;14.75;48.87
63554;BME280;49699;48.072;7.800;2023-03-25T14:03:43;99126.50;;;14.43;51.06
63554;BME280;49699;48.072;7.800;2023-03-25T14:11:15;99114.22;;;14.33;50.50
63554;BME280;49699;48.072;7.800;2023-03-25T14:13:49;99114.81;;;14.14;51.14
63554;BME280;49699;48.072;7.800;2023-03-25T14:16:18;99114.78;;;14.03;51.47
63554;BME280;49699;48.072;7.800;2023-03-25T14:18:47;99117.19;;;14.06;51.55
63554;BME280;49699;48.072;7.800;2023-03-25T14:21:14;99118.63;;;14.10;51.82
63554;BME280;49699;48.072;7.800;2023-03-25T14:23:47;99113.50;;;13.97;51.97
63554;BME280;49699;48.072;7.800;2023-03-25T14:26:14;99106.06;;;13.80;52.42
63554;BME280;49699;48.072;7.800;2023-03-25T14:28:42;99100.94;;;13.67;53.09
63554;BME280;49699;48.072;7.800;2023-03-25T14:42:08;99108.31;;;13.27;53.59
63554;BME280;49699;48.072;7.800;2023-03-25T14:44:30;99103.47;;;13.34;53.21
63554;BME280;49699;48.072;7.800;2023-03-25T14:55:07;99098.66;;;13.51;51.64
63554;BME280;49699;48.072;7.800;2023-03-25T14:57:37;99099.94;;;13.46;51.23
63554;BME280;49699;48.072;7.800;2023-03-25T15:00:04;99108.03;;;13.43;50.46
63554;BME280;49699;48.072;7.800;2023-03-25T15:02:42;99115.78;;;13.55;49.30
63554;BME280;49699;48.072;7.800;2023-03-25T15:07:52;99105.84;;;13.72;48.11
63554;BME280;49699;48.072;7.800;2023-03-25T15:10:28;99103.91;;;13.63;47.99
63554;BME280;49699;48.072;7.800;2023-03-25T15:18:09;99096.38;;;13.47;47.30
63554;BME280;49699;48.072;7.800;2023-03-25T15:20:34;99090.78;;;13.40;46.80
63554;BME280;49699;48.072;7.800;2023-03-25T15:25:44;99093.63;;;13.37;46.41
63554;BME280;49699;48.072;7.800;2023-03-25T15:33:27;99081.59;;;13.81;45.66
63554;BME280;49699;48.072;7.800;2023-03-25T15:35:58;99075.91;;;14.09;45.15
63554;BME280;49699;48.072;7.800;2023-03-25T15:56:32;99045.00;;;14.14;45.06
63554;BME280;49699;48.072;7.800;2023-03-25T15:59:01;99072.81;;;14.04;47.74
63554;BME280;49699;48.072;7.800;2023-03-25T16:01:30;99080.28;;;13.86;49.51
63554;BME280;49699;48.072;7.800;2023-03-25T16:04:01;99085.13;;;13.69;50.30
63554;BME280;49699;48.072;7.800;2023-03-25T16:06:28;99080.66;;;13.36;51.35
63554;BME280;49699;48.072;7.800;2023-03-25T16:08:55;99083.97;;;13.03;52.34
63554;BME280;49699;48.072;7.800;2023-03-25T16:11:22;99092.81;;;12.89;53.08